Time;durP1;ratioP1;P1;durP2;ratioP2;P2;SDS_P1;SDS_P2;PMS_P1;PMS_P2;Temp;Humidity;BMP_temperature;BMP_pressure;BME280_temperature;BME280_humidity;BME280_pressure;Samples;Min_cycle;Max_cycle;Signal;HPM_P1;HPM_P2
2023/01/10 00:00:33;;;;;;;1.17;0.80;;;4.60;99.90;;;;;;4963822;28;20179;-31
2023/01/10 00:03:07;;;;;;;2.73;0.97;;;4.60;99.90;;;;;;4978325;28;20187;-30
2023/01/10 00:05:34;;;;;;;4.20;0.80;;;4.50;99.90;;;;;;4994058;28;20189;-30
2023/01/10 00:08:03;;;;;;;1.00;0.73;;;4.60;99.90;;;;;;4994279;28;20221;-32
2023/01/10 00:10:30;;;;;;;0.93;0.83;;;4.50;99.90;;;;;;4993915;28;20210;-31
2023/01/10 00:15:41;;;;;;;3.07;0.70;;;4.50;99.90;;;;;;4997401;28;20186;-31
2023/01/10 00:18:07;;;;;;;1.27;0.80;;;4.50;99.90;;;;;;5005567;28;20204;-31
2023/01/10 00:20:33;;;;;;;1.23;0.80;;;4.50;99.90;;;;;;4994952;28;20201;-30
2023/01/10 00:22:59;;;;;;;1.63;0.90;;;4.50;99.90;;;;;;4994154;28;20175;-31
2023/01/10 00:25:25;;;;;;;1.10;0.60;;;4.50;99.90;;;;;;4994081;28;20184;-31
2023/01/10 00:31:05;;;;;;;1.20;1.00;;;4.50;99.90;;;;;;4985031;28;20220;-30
2023/01/10 00:33:35;;;;;;;0.80;0.53;;;4.50;99.90;;;;;;4993541;28;20171;-31
2023/01/10 00:36:04;;;;;;;0.53;0.53;;;4.50;99.90;;;;;;4993723;28;20180;-30
2023/01/10 00:38:31;;;;;;;0.60;0.50;;;4.50;99.90;;;;;;4993947;28;20251;-31
2023/01/10 00:40:57;;;;;;;0.93;0.80;;;4.50;99.90;;;;;;4977701;28;20239;-31
2023/01/10 00:46:09;;;;;;;0.70;0.50;;;4.40;99.90;;;;;;5000564;28;20272;-31
2023/01/10 00:48:35;;;;;;;1.23;0.40;;;4.40;99.90;;;;;;5005434;28;20194;-32
2023/01/10 00:51:01;;;;;;;0.47;0.47;;;4.40;99.90;;;;;;5005386;28;20210;-30
2023/01/10 00:53:27;;;;;;;1.23;0.43;;;4.40;99.90;;;;;;5010903;28;20173;-32
2023/01/10 00:55:54;;;;;;;1.30;0.50;;;4.40;99.90;;;;;;5010740;28;20183;-31
2023/01/10 00:58:20;;;;;;;0.60;0.60;;;4.40;99.90;;;;;;4977499;28;20263;-30
2023/01/10 01:00:48;;;;;;;1.43;0.57;;;4.40;99.90;;;;;;4993186;28;20659;-31
2023/01/10 01:03:15;;;;;;;0.93;0.73;;;4.40;99.90;;;;;;4993858;28;20187;-33
2023/01/10 01:05:43;;;;;;;0.57;0.57;;;4.30;99.90;;;;;;4976801;28;20182;-31
2023/01/10 01:08:10;;;;;;;0.93;0.57;;;4.40;99.90;;;;;;4992805;28;20210;-30
2023/01/10 01:10:36;;;;;;;0.67;0.50;;;4.40;99.90;;;;;;4993478;28;20193;-31
2023/01/10 01:13:14;;;;;;;0.60;0.60;;;4.40;99.90;;;;;;5011079;28;20182;-31
2023/01/10 01:15:39;;;;;;;0.97;0.73;;;4.40;99.90;;;;;;4980058;28;20170;-31
2023/01/10 01:18:05;;;;;;;1.80;0.87;;;4.40;99.90;;;;;;4998114;28;20221;-32
2023/01/10 01:20:32;;;;;;;0.73;0.73;;;4.40;99.90;;;;;;5010869;28;20190;-31
2023/01/10 01:22:58;;;;;;;0.70;0.70;;;4.40;99.90;;;;;;5011220;28;20194;-31
2023/01/10 01:25:24;;;;;;;0.87;0.67;;;4.40;99.90;;;;;;4993593;28;20183;-30
2023/01/10 01:27:49;;;;;;;0.67;0.60;;;4.40;99.90;;;;;;4993217;28;20203;-30
2023/01/10 01:30:15;;;;;;;0.87;0.63;;;4.40;99.90;;;;;;4992894;28;20215;-32
2023/01/10 01:32:41;;;;;;;1.27;0.67;;;4.40;99.90;;;;;;4977129;28;20182;-31
2023/01/10 01:35:11;;;;;;;0.60;0.60;;;4.40;99.90;;;;;;4993462;28;20179;-31
2023/01/10 01:37:37;;;;;;;1.07;0.50;;;4.40;99.90;;;;;;4976748;28;20221;-30
2023/01/10 01:40:03;;;;;;;1.13;0.60;;;4.40;99.90;;;;;;4976784;28;20546;-31
2023/01/10 01:42:33;;;;;;;1.10;0.60;;;4.40;99.90;;;;;;4993037;28;20184;-31
2023/01/10 01:45:08;;;;;;;0.67;0.60;;;4.40;99.90;;;;;;5010237;28;20173;-31
2023/01/10 01:48:12;;;;;;;1.23;0.50;;;4.40;99.90;;;;;;4986698;28;20199;-32
2023/01/10 01:50:44;;;;;;;1.23;0.50;;;4.40;99.90;;;;;;4974856;28;20255;-31
2023/01/10 01:53:19;;;;;;;0.80;0.50;;;4.40;99.90;;;;;;4996718;28;20203;-30
2023/01/10 01:55:46;;;;;;;0.70;0.60;;;4.40;99.90;;;;;;4993495;28;20189;-30
2023/01/10 01:58:16;;;;;;;1.03;0.60;;;4.50;99.90;;;;;;5010769;28;20204;-31
2023/01/10 02:00:43;;;;;;;1.37;0.60;;;4.40;99.90;;;;;;4992701;28;20176;-31
2023/01/10 02:03:10;;;;;;;2.83;0.60;;;4.40;99.90;;;;;;5010455;28;20184;-31
2023/01/10 02:05:39;;;;;;;0.70;0.60;;;4.40;99.90;;;;;;4993093;28;20190;-31
2023/01/10 02:08:04;;;;;;;0.90;0.70;;;4.40;99.90;;;;;;5010482;28;20246;-30
2023/01/10 02:10:57;;;;;;;1.27;0.60;;;4.40;99.90;;;;;;4977793;28;20227;-32
2023/01/10 02:13:25;;;;;;;0.93;0.60;;;4.40;99.90;;;;;;4996119;28;20219;-30
2023/01/10 02:15:50;;;;;;;1.03;0.70;;;4.40;99.90;;;;;;4984376;28;20187;-31
2023/01/10 02:18:18;;;;;;;0.90;0.70;;;4.40;99.90;;;;;;4990558;28;20176;-31
2023/01/10 02:21:14;;;;;;;0.83;0.83;;;4.30;99.90;;;;;;4996347;28;20185;-32
2023/01/10 02:24:11;;;;;;;2.33;0.80;;;4.30;99.90;;;;;;4995961;28;20181;-32
2023/01/10 02:27:00;;;;;;;0.70;0.70;;;4.30;99.90;;;;;;4995987;28;20208;-31
2023/01/10 02:30:00;;;;;;;0.97;0.70;;;4.30;99.90;;;;;;5005332;28;20187;-31
2023/01/10 02:33:02;;;;;;;2.67;0.60;;;4.30;99.90;;;;;;4979784;28;20567;-32
2023/01/10 02:35:59;;;;;;;0.80;0.60;;;4.30;99.90;;;;;;4926469;29;20182;-32
2023/01/10 02:38:39;;;;;;;1.17;0.67;;;4.30;99.90;;;;;;4995596;28;20194;-32
2023/01/10 02:41:27;;;;;;;0.60;0.50;;;4.30;99.90;;;;;;5013459;28;20229;-31
2023/01/10 02:44:06;;;;;;;2.37;0.97;;;4.30;99.90;;;;;;5013610;28;20209;-33
2023/01/10 02:46:33;;;;;;;0.60;0.60;;;4.30;99.90;;;;;;5003890;28;20221;-33
2023/01/10 02:48:59;;;;;;;0.70;0.70;;;4.30;99.90;;;;;;4984689;28;20192;-33
2023/01/10 02:51:27;;;;;;;0.50;0.50;;;4.30;99.90;;;;;;5001700;28;20207;-33
2023/01/10 02:54:10;;;;;;;0.77;0.60;;;4.30;99.90;;;;;;4993545;28;20179;-32
2023/01/10 02:56:54;;;;;;;0.83;0.70;;;4.30;99.90;;;;;;5023244;23;20251;-88
2023/01/10 02:59:39;;;;;;;1.13;0.53;;;4.40;99.90;;;;;;4999470;28;20183;-88
2023/01/10 03:02:32;;;;;;;0.30;0.30;;;4.40;99.90;;;;;;5010460;28;20340;-89
2023/01/10 03:05:21;;;;;;;0.30;0.30;;;4.40;99.90;;;;;;5034227;28;20204;-89
2023/01/10 03:08:14;;;;;;;0.30;0.30;;;4.40;99.90;;;;;;4989899;28;20218;-89
2023/01/10 03:11:01;;;;;;;0.30;0.30;;;4.40;99.90;;;;;;5016453;28;20213;-88
2023/01/10 03:13:53;;;;;;;0.30;0.30;;;4.40;99.90;;;;;;5000095;28;20225;-89
2023/01/10 03:16:25;;;;;;;0.23;0.23;;;4.40;99.90;;;;;;5042528;28;20190;-88
2023/01/10 03:19:06;;;;;;;0.27;0.27;;;4.40;99.90;;;;;;4992795;28;20616;-87
2023/01/10 03:21:34;;;;;;;0.27;0.20;;;4.40;99.90;;;;;;5016663;28;20166;-89
2023/01/10 03:24:06;;;;;;;0.20;0.20;;;4.40;99.90;;;;;;4999822;28;20199;-89
2023/01/10 03:26:57;;;;;;;0.30;0.30;;;4.40;99.90;;;;;;4999901;28;20199;-89
2023/01/10 03:29:47;;;;;;;0.20;0.20;;;4.30;99.90;;;;;;4981179;28;20304;-91
2023/01/10 03:32:17;;;;;;;0.30;0.30;;;4.30;99.90;;;;;;5031866;28;20199;-90
2023/01/10 03:34:43;;;;;;;0.83;0.40;;;4.30;99.90;;;;;;4999692;28;20218;-90
2023/01/10 03:37:18;;;;;;;1.00;0.30;;;4.30;99.90;;;;;;5016372;28;20269;-89
2023/01/10 03:39:59;;;;;;;0.30;0.30;;;4.30;99.90;;;;;;5016490;28;20173;-90
2023/01/10 03:45:42;;;;;;;0.40;0.33;;;4.30;99.90;;;;;;5014876;28;20191;-90
2023/01/10 03:48:10;;;;;;;0.30;0.30;;;4.30;99.90;;;;;;5028767;28;20178;-89
2023/01/10 03:50:37;;;;;;;0.33;0.30;;;4.20;99.90;;;;;;5015679;28;20237;-90
2023/01/10 03:53:04;;;;;;;0.40;0.40;;;4.30;99.90;;;;;;5016001;28;20187;-89
2023/01/10 03:55:30;;;;;;;0.40;0.40;;;4.30;99.90;;;;;;5033727;28;20167;-89
2023/01/10 03:57:56;;;;;;;0.60;0.60;;;4.30;99.90;;;;;;4999308;28;20194;-90
2023/01/10 04:00:23;;;;;;;0.40;0.40;;;4.30;99.90;;;;;;5029390;28;20172;-90
2023/01/10 04:02:48;;;;;;;1.50;0.77;;;4.20;99.90;;;;;;4999367;28;20198;-90
2023/01/10 04:05:14;;;;;;;1.17;0.70;;;4.20;99.90;;;;;;5017620;28;20183;-89
2023/01/10 04:07:40;;;;;;;0.90;0.67;;;4.20;99.90;;;;;;5033153;28;20236;-89
2023/01/10 04:10:07;;;;;;;1.73;0.60;;;4.30;99.90;;;;;;5035283;28;20181;-90
2023/01/10 04:12:33;;;;;;;1.17;0.67;;;4.30;99.90;;;;;;5033932;28;20182;-89
2023/01/10 04:15:00;;;;;;;1.30;0.60;;;4.30;99.90;;;;;;5015267;28;20255;-88
2023/01/10 04:17:26;;;;;;;1.17;0.50;;;4.30;99.90;;;;;;5008012;28;20190;-89
2023/01/10 04:19:52;;;;;;;0.63;0.43;;;4.30;99.90;;;;;;5035063;28;20190;-89
2023/01/10 04:22:17;;;;;;;0.97;0.60;;;4.30;99.90;;;;;;5052983;28;20186;-90
2023/01/10 04:24:44;;;;;;;0.70;0.70;;;4.30;99.90;;;;;;5034898;28;20209;-90
2023/01/10 04:27:10;;;;;;;2.07;0.80;;;4.30;99.90;;;;;;5018875;28;20650;-90
2023/01/10 04:29:36;;;;;;;1.13;0.63;;;4.40;99.90;;;;;;5034618;28;20276;-90
2023/01/10 04:32:01;;;;;;;2.60;1.33;;;4.30;99.90;;;;;;5051733;28;20205;-90
2023/01/10 04:34:28;;;;;;;3.13;1.50;;;4.40;99.90;;;;;;5023220;28;20202;-90
2023/01/10 04:36:55;;;;;;;2.70;1.40;;;4.40;99.90;;;;;;5016677;28;20244;-90
2023/01/10 04:39:22;;;;;;;1.97;1.23;;;4.40;99.90;;;;;;5007975;28;20262;-90
2023/01/10 04:41:48;;;;;;;2.50;1.27;;;4.40;99.90;;;;;;5052331;28;20271;-90
2023/01/10 04:44:18;;;;;;;3.17;2.07;;;4.40;99.90;;;;;;5050935;28;20221;-90
2023/01/10 04:46:44;;;;;;;6.23;3.90;;;4.40;99.90;;;;;;5011898;28;20182;-89
2023/01/10 04:49:10;;;;;;;4.07;2.77;;;4.40;99.90;;;;;;5034195;28;20239;-90
2023/01/10 04:51:36;;;;;;;4.53;2.83;;;4.40;99.90;;;;;;5000834;28;20264;-90
2023/01/10 04:54:02;;;;;;;9.87;7.67;;;4.30;99.90;;;;;;4998306;28;20196;-90
2023/01/10 04:56:28;;;;;;;5.50;3.93;;;4.30;99.90;;;;;;5028706;28;20210;-90
2023/01/10 04:58:54;;;;;;;3.33;1.90;;;4.30;99.90;;;;;;5034552;28;20178;-90
2023/01/10 05:01:23;;;;;;;3.53;1.30;;;4.20;99.90;;;;;;5012659;28;20181;-90
2023/01/10 05:03:51;;;;;;;4.17;1.20;;;4.20;99.90;;;;;;4998384;28;20356;-91
2023/01/10 05:06:18;;;;;;;6.27;1.30;;;4.20;99.90;;;;;;4999790;28;20273;-90
2023/01/10 05:08:44;;;;;;;4.30;1.80;;;4.20;99.90;;;;;;5043800;28;20190;-89
2023/01/10 05:11:11;;;;;;;5.67;1.60;;;4.20;99.90;;;;;;5032416;28;20215;-90
2023/01/10 05:13:38;;;;;;;6.20;1.77;;;4.20;99.90;;;;;;4998437;28;20194;-90
2023/01/10 05:16:04;;;;;;;6.50;1.67;;;4.20;99.90;;;;;;5017893;28;20183;-90
2023/01/10 05:18:30;;;;;;;8.27;1.80;;;4.20;99.90;;;;;;5016146;28;20268;-90
2023/01/10 05:21:05;;;;;;;4.13;1.67;;;4.20;99.90;;;;;;5034766;28;20179;-91
2023/01/10 05:23:31;;;;;;;6.00;1.93;;;4.20;99.90;;;;;;5034366;28;20205;-91
2023/01/10 05:25:57;;;;;;;5.67;1.90;;;4.20;99.90;;;;;;4997505;28;20193;-90
2023/01/10 05:28:23;;;;;;;7.43;1.73;;;4.20;99.90;;;;;;5011459;28;20191;-90
2023/01/10 05:30:49;;;;;;;5.70;1.77;;;4.20;99.90;;;;;;5011381;28;20210;-89
2023/01/10 05:33:15;;;;;;;6.93;1.67;;;4.30;99.90;;;;;;4994977;28;20223;-90
2023/01/10 05:35:40;;;;;;;5.60;1.90;;;4.20;99.90;;;;;;5011563;28;20186;-89
2023/01/10 05:38:06;;;;;;;5.97;1.83;;;4.30;99.90;;;;;;5012796;28;20198;-89
2023/01/10 05:40:32;;;;;;;5.60;1.80;;;4.30;99.90;;;;;;5011488;28;20185;-89
2023/01/10 05:42:58;;;;;;;4.87;2.10;;;4.30;99.90;;;;;;5014457;28;20184;-89
2023/01/10 05:45:24;;;;;;;6.20;1.97;;;4.30;99.90;;;;;;5000328;28;20175;-90
2023/01/10 05:47:49;;;;;;;6.17;1.90;;;4.30;99.90;;;;;;5029807;28;20181;-89
2023/01/10 05:50:15;;;;;;;14.30;2.53;;;4.30;99.90;;;;;;5021381;28;20185;-89
2023/01/10 05:52:41;;;;;;;6.47;2.20;;;4.30;99.90;;;;;;5014544;28;20181;-90
2023/01/10 05:55:12;;;;;;;14.20;5.40;;;4.30;99.90;;;;;;5034955;28;20200;-89
2023/01/10 05:57:38;;;;;;;4.80;2.37;;;4.30;99.90;;;;;;5001658;28;20202;-90
2023/01/10 06:00:05;;;;;;;5.50;2.73;;;4.30;99.90;;;;;;5018011;28;20198;-90
2023/01/10 06:02:37;;;;;;;8.03;1.93;;;4.30;99.90;;;;;;5019026;28;20173;-89
2023/01/10 06:05:03;;;;;;;4.57;1.67;;;4.30;99.90;;;;;;5007872;28;20200;-91
2023/01/10 06:07:31;;;;;;;3.17;1.70;;;4.30;99.90;;;;;;5009444;28;20179;-93
2023/01/10 06:09:57;;;;;;;10.57;2.90;;;4.30;99.90;;;;;;5013140;28;20253;-92
2023/01/10 06:12:24;;;;;;;5.47;2.00;;;4.30;99.90;;;;;;5041440;28;20225;-92
2023/01/10 06:14:50;;;;;;;8.33;2.10;;;4.30;99.90;;;;;;5009402;28;20266;-92
2023/01/10 06:17:16;;;;;;;6.80;2.03;;;4.30;99.90;;;;;;5027635;28;20214;-92
2023/01/10 06:19:48;;;;;;;8.67;2.00;;;4.30;99.90;;;;;;5041210;28;20211;-92
2023/01/10 06:22:14;;;;;;;7.30;1.93;;;4.30;99.90;;;;;;4995571;28;20195;-92
2023/01/10 06:24:41;;;;;;;4.67;1.93;;;4.30;99.90;;;;;;5027897;28;20252;-92
2023/01/10 06:27:11;;;;;;;8.57;2.40;;;4.30;99.90;;;;;;5060888;28;20183;-92
2023/01/10 06:29:38;;;;;;;6.33;2.23;;;4.30;99.90;;;;;;5026583;28;20186;-91
2023/01/10 06:32:04;;;;;;;26.27;8.27;;;4.30;99.90;;;;;;5029405;28;20219;-91
2023/01/10 06:34:30;;;;;;;16.43;5.20;;;4.30;99.90;;;;;;5017756;28;20208;-92
2023/01/10 06:36:57;;;;;;;11.30;3.80;;;4.30;99.90;;;;;;5017585;28;20175;-91
2023/01/10 06:39:23;;;;;;;11.77;3.70;;;4.30;99.90;;;;;;5026352;28;20184;-92
2023/01/10 06:41:48;;;;;;;8.27;3.60;;;4.30;99.90;;;;;;5012113;28;20255;-92
2023/01/10 06:44:14;;;;;;;10.40;4.53;;;4.30;99.90;;;;;;5011916;28;20210;-91
2023/01/10 06:46:40;;;;;;;10.60;4.37;;;4.30;99.90;;;;;;5015526;28;20192;-92
2023/01/10 06:49:06;;;;;;;5.60;2.77;;;4.30;99.90;;;;;;5019483;28;20184;-92
2023/01/10 06:51:32;;;;;;;8.87;3.67;;;4.30;99.90;;;;;;5012151;28;20206;-92
2023/01/10 06:53:58;;;;;;;17.60;8.30;;;4.30;99.90;;;;;;5026412;28;20203;-91
2023/01/10 06:56:23;;;;;;;14.93;8.60;;;4.30;99.90;;;;;;5029733;28;20185;-91
2023/01/10 06:58:50;;;;;;;11.50;5.33;;;4.30;99.90;;;;;;5010998;28;20175;-93
2023/01/10 07:01:19;;;;;;;8.70;4.53;;;4.30;99.90;;;;;;5010384;28;20192;-93
2023/01/10 07:03:45;;;;;;;15.40;7.07;;;4.30;99.90;;;;;;5009140;28;20289;-91
2023/01/10 07:06:10;;;;;;;61.63;34.33;;;4.30;99.90;;;;;;5028035;28;20236;-92
2023/01/10 07:08:39;;;;;;;19.97;11.33;;;4.30;99.90;;;;;;5028478;28;20189;-92
2023/01/10 07:11:06;;;;;;;22.47;10.13;;;4.30;99.90;;;;;;5029864;28;20210;-92
2023/01/10 07:13:32;;;;;;;14.27;7.30;;;4.30;99.90;;;;;;5029512;28;20294;-93
2023/01/10 07:16:09;;;;;;;9.87;4.87;;;4.30;99.90;;;;;;5018501;28;20320;-92
2023/01/10 07:18:36;;;;;;;10.77;3.57;;;4.30;99.90;;;;;;5033686;28;20173;-92
2023/01/10 07:21:03;;;;;;;5.13;3.60;;;4.30;99.90;;;;;;5033195;28;20186;-92
2023/01/10 07:23:30;;;;;;;8.00;3.23;;;4.30;99.90;;;;;;5050457;28;20199;-92
2023/01/10 07:25:56;;;;;;;5.33;2.20;;;4.20;99.90;;;;;;5051092;28;20182;-93
2023/01/10 07:28:23;;;;;;;9.77;4.53;;;4.20;99.90;;;;;;5033842;28;20178;-92
2023/01/10 07:30:48;;;;;;;6.77;3.50;;;4.20;99.90;;;;;;5049573;28;20281;-92
2023/01/10 07:33:14;;;;;;;7.73;2.90;;;4.20;99.90;;;;;;5068274;28;20234;-91
2023/01/10 07:35:40;;;;;;;7.80;2.87;;;4.20;99.90;;;;;;5051292;28;20201;-92
2023/01/10 07:38:07;;;;;;;7.23;2.40;;;4.10;99.90;;;;;;5051753;28;20183;-91
2023/01/10 07:40:33;;;;;;;5.83;2.90;;;4.10;99.90;;;;;;5050925;28;20198;-92
2023/01/10 07:43:01;;;;;;;10.30;3.70;;;4.10;99.90;;;;;;5051704;28;20209;-92
2023/01/10 07:45:28;;;;;;;12.37;3.73;;;4.10;99.90;;;;;;5051963;28;20194;-92
2023/01/10 07:47:59;;;;;;;10.53;3.23;;;4.10;99.90;;;;;;5035132;28;20258;-92
2023/01/10 07:50:27;;;;;;;9.37;2.60;;;4.10;99.90;;;;;;5035207;28;20184;-92
2023/01/10 07:52:53;;;;;;;7.10;3.00;;;4.10;99.90;;;;;;5042999;28;20178;-92
2023/01/10 07:55:19;;;;;;;9.03;3.00;;;4.10;99.90;;;;;;5034238;28;20175;-91
2023/01/10 07:57:45;;;;;;;11.47;4.30;;;4.20;99.90;;;;;;5034163;28;20206;-92
2023/01/10 08:00:12;;;;;;;8.00;3.10;;;4.10;99.90;;;;;;5051584;28;20273;-93
2023/01/10 08:02:38;;;;;;;11.50;3.37;;;4.10;99.90;;;;;;5034000;28;20178;-93
2023/01/10 08:05:04;;;;;;;10.87;3.30;;;4.10;99.90;;;;;;5033889;28;20218;-91
2023/01/10 08:07:30;;;;;;;7.90;3.40;;;4.10;99.90;;;;;;5065605;28;20194;-92
2023/01/10 08:09:56;;;;;;;6.87;3.43;;;4.10;99.90;;;;;;5033263;28;20192;-92
2023/01/10 08:12:26;;;;;;;7.83;3.70;;;4.10;99.90;;;;;;5054438;28;20257;-92
2023/01/10 08:14:51;;;;;;;8.07;3.30;;;4.10;99.90;;;;;;5006118;28;20194;-92
2023/01/10 08:17:18;;;;;;;9.10;2.93;;;4.10;99.90;;;;;;5044036;28;20231;-92
2023/01/10 08:19:44;;;;;;;7.53;3.30;;;4.10;99.90;;;;;;5041986;28;20182;-93
2023/01/10 08:22:10;;;;;;;4.47;2.80;;;4.20;99.90;;;;;;5029371;28;20175;-92
2023/01/10 08:24:36;;;;;;;6.43;2.67;;;4.10;99.90;;;;;;5022283;28;20203;-93
2023/01/10 08:27:03;;;;;;;5.50;2.50;;;4.10;99.90;;;;;;5053625;28;20187;-92
2023/01/10 08:29:29;;;;;;;7.17;2.83;;;4.10;99.90;;;;;;5045756;28;20174;-92
2023/01/10 08:31:55;;;;;;;6.80;2.67;;;4.20;99.90;;;;;;5020359;28;20207;-92
2023/01/10 08:34:21;;;;;;;5.07;2.63;;;4.20;99.90;;;;;;5015688;28;20198;-93
2023/01/10 08:36:51;;;;;;;6.70;2.90;;;4.20;99.90;;;;;;5042559;28;20187;-92
2023/01/10 08:39:19;;;;;;;7.87;2.83;;;4.20;99.90;;;;;;5027737;28;20242;-92
2023/01/10 08:41:45;;;;;;;12.53;2.93;;;4.30;99.90;;;;;;5033404;28;20190;-91
2023/01/10 08:44:12;;;;;;;7.07;2.53;;;4.30;99.90;;;;;;5024643;28;20198;-93
2023/01/10 08:46:38;;;;;;;12.03;3.03;;;4.40;99.90;;;;;;5040840;28;20315;-93
2023/01/10 08:49:04;;;;;;;7.70;2.60;;;4.40;99.90;;;;;;5028655;28;20190;-92
2023/01/10 08:51:30;;;;;;;6.03;2.67;;;4.40;99.90;;;;;;5046988;28;20229;-92
2023/01/10 08:53:55;;;;;;;6.23;2.60;;;4.40;99.90;;;;;;5026552;28;20205;-92
2023/01/10 08:56:21;;;;;;;9.47;2.27;;;4.50;99.90;;;;;;5046399;28;20254;-92
2023/01/10 08:58:47;;;;;;;6.17;2.50;;;4.50;99.90;;;;;;5064130;28;20234;-92
2023/01/10 09:01:14;;;;;;;4.37;2.33;;;4.60;99.90;;;;;;5048990;28;20182;-91
2023/01/10 09:03:40;;;;;;;8.67;2.60;;;4.60;99.90;;;;;;5022967;28;20190;-92
2023/01/10 09:06:07;;;;;;;5.83;2.43;;;4.60;99.90;;;;;;5039438;28;20197;-92
2023/01/10 09:08:35;;;;;;;5.40;2.00;;;4.60;99.90;;;;;;5014455;28;20175;-92
2023/01/10 09:11:01;;;;;;;7.83;2.30;;;4.70;99.90;;;;;;5009642;28;20210;-93
2023/01/10 09:13:28;;;;;;;5.77;3.30;;;4.60;99.90;;;;;;5005495;28;20208;-92
2023/01/10 09:15:54;;;;;;;9.63;3.50;;;4.70;99.90;;;;;;5028826;28;20184;-92
2023/01/10 09:18:20;;;;;;;8.20;3.67;;;4.70;99.90;;;;;;5001825;28;20183;-92
2023/01/10 09:21:02;;;;;;;7.57;3.00;;;4.80;99.90;;;;;;5011107;28;20180;-93
2023/01/10 09:23:30;;;;;;;8.90;2.43;;;4.80;99.90;;;;;;5028265;28;20246;-93
2023/01/10 09:25:56;;;;;;;4.73;2.00;;;4.80;99.90;;;;;;5024798;28;20191;-93
2023/01/10 09:28:24;;;;;;;7.03;2.57;;;4.90;99.90;;;;;;5016681;28;20291;-93
2023/01/10 09:30:50;;;;;;;5.30;2.50;;;4.90;99.90;;;;;;5029579;28;20229;-93
2023/01/10 09:33:16;;;;;;;7.77;2.50;;;4.90;99.90;;;;;;5027639;28;20249;-90
2023/01/10 09:35:43;;;;;;;5.40;2.57;;;4.90;99.90;;;;;;5017355;28;20699;-91
2023/01/10 09:38:13;;;;;;;8.17;2.80;;;4.90;99.90;;;;;;5009923;28;20200;-91
2023/01/10 09:41:00;;;;;;;5.60;2.20;;;5.00;99.90;;;;;;5021699;28;21067;-91
2023/01/10 09:43:38;;;;;;;6.30;1.87;;;5.00;99.90;;;;;;4999087;28;20211;-91
2023/01/10 09:46:11;;;;;;;4.57;2.00;;;5.00;99.90;;;;;;5009476;28;20211;-91
2023/01/10 09:48:57;;;;;;;6.47;1.90;;;5.00;99.90;;;;;;5014326;28;20188;-90
2023/01/10 09:51:44;;;;;;;4.60;1.80;;;5.10;99.90;;;;;;4999257;28;20207;-90
2023/01/10 09:54:22;;;;;;;6.03;2.07;;;5.10;99.90;;;;;;5009941;28;20205;-91
2023/01/10 09:56:48;;;;;;;5.90;2.07;;;5.10;99.90;;;;;;5016202;28;20197;-91
2023/01/10 09:59:25;;;;;;;6.00;1.77;;;5.10;99.90;;;;;;5035585;28;20188;-91
2023/01/10 10:02:03;;;;;;;4.80;2.33;;;5.20;99.90;;;;;;5035450;28;20167;-92
2023/01/10 10:04:41;;;;;;;6.07;1.77;;;5.20;99.90;;;;;;5032907;28;20232;-90
2023/01/10 10:07:29;;;;;;;;;;;;;;;;;;;;;
2023/01/10 10:13:03;;;;;;;11.80;3.60;;;5.30;99.90;;;;;;4992919;28;20263;-32
2023/01/10 10:15:51;;;;;;;6.47;2.73;;;5.30;99.90;;;;;;4990148;28;20181;-31
2023/01/10 10:18:32;;;;;;;7.70;3.27;;;5.30;99.90;;;;;;4978635;28;20193;-32
2023/01/10 10:21:23;;;;;;;8.23;4.00;;;5.40;99.90;;;;;;4991747;28;20197;-32
2023/01/10 10:26:44;;;;;;;5.53;2.70;;;5.50;99.90;;;;;;5041948;22;20285;-37
2023/01/10 10:29:13;;;;;;;5.23;2.20;;;5.50;99.90;;;;;;5020962;28;20214;-40
2023/01/10 10:32:17;;;;;;;5.27;1.67;;;5.60;99.90;;;;;;5019475;28;20265;-37
2023/01/10 10:34:57;;;;;;;7.17;2.57;;;5.60;99.90;;;;;;5037363;28;20208;-37
2023/01/10 10:37:32;;;;;;;5.40;2.07;;;5.70;99.90;;;;;;5037731;28;20188;-39
2023/01/10 10:40:00;;;;;;;6.60;1.80;;;5.70;99.90;;;;;;5036737;28;20183;-37
2023/01/10 10:42:32;;;;;;;6.53;1.90;;;5.80;99.90;;;;;;5022992;28;20190;-38
2023/01/10 10:45:09;;;;;;;5.47;1.70;;;5.80;99.90;;;;;;5040563;28;20206;-37
2023/01/10 10:47:38;;;;;;;4.37;1.67;;;5.90;99.90;;;;;;5023287;28;20211;-38
2023/01/10 10:50:07;;;;;;;5.57;2.20;;;5.90;99.90;;;;;;5019478;28;20228;-38
2023/01/10 10:52:35;;;;;;;7.00;2.00;;;5.90;99.90;;;;;;5041931;28;20222;-38
2023/01/10 10:55:03;;;;;;;6.23;1.90;;;6.00;99.90;;;;;;5038605;28;20209;-37
2023/01/10 10:57:33;;;;;;;7.03;1.93;;;6.00;99.90;;;;;;5038549;28;20201;-40
2023/01/10 11:00:01;;;;;;;8.27;2.50;;;6.00;99.90;;;;;;5022106;28;20186;-37
2023/01/10 11:02:30;;;;;;;6.43;2.50;;;6.00;99.90;;;;;;5019919;28;20196;-38
2023/01/10 11:05:00;;;;;;;7.53;2.23;;;6.00;99.90;;;;;;5028428;28;20209;-37
2023/01/10 11:07:33;;;;;;;3.13;1.83;;;6.10;99.90;;;;;;5022990;28;20199;-37
2023/01/10 11:10:07;;;;;;;2.97;1.53;;;6.10;99.90;;;;;;5003606;28;20661;-37
2023/01/10 11:12:37;;;;;;;6.53;2.27;;;6.10;99.90;;;;;;5038635;28;20223;-37
2023/01/10 11:15:03;;;;;;;6.07;2.17;;;6.10;99.90;;;;;;5040314;28;20233;-37
2023/01/10 11:17:32;;;;;;;3.77;1.63;;;6.10;99.90;;;;;;5039340;28;20205;-37
2023/01/10 11:20:03;;;;;;;5.00;1.57;;;6.10;99.90;;;;;;5039137;28;20248;-37
2023/01/10 11:22:53;;;;;;;8.37;2.33;;;6.10;99.90;;;;;;5040036;28;20240;-37
2023/01/10 11:25:21;;;;;;;4.63;1.70;;;6.20;99.90;;;;;;5026365;28;20305;-37
2023/01/10 11:27:57;;;;;;;2.97;1.43;;;6.20;99.90;;;;;;5040312;28;20236;-37
2023/01/10 11:30:26;;;;;;;5.80;2.00;;;6.20;99.90;;;;;;5005931;28;20194;-39
2023/01/10 11:32:59;;;;;;;4.73;1.40;;;6.20;99.90;;;;;;5041376;28;20196;-37
2023/01/10 11:35:35;;;;;;;5.83;2.17;;;6.20;99.90;;;;;;5039578;28;20198;-38
2023/01/10 11:38:17;;;;;;;4.30;1.63;;;6.30;99.90;;;;;;5021294;28;20220;-37
2023/01/10 11:41:04;;;;;;;4.47;1.83;;;6.30;99.90;;;;;;5018361;28;20254;-38
2023/01/10 11:43:34;;;;;;;6.27;1.50;;;6.40;99.90;;;;;;5018994;28;20220;-37
2023/01/10 11:46:21;;;;;;;5.63;1.83;;;6.40;99.90;;;;;;5039350;28;20186;-37
2023/01/10 11:49:13;;;;;;;3.87;1.40;;;6.50;99.90;;;;;;5022251;28;20216;-37
2023/01/10 11:51:50;;;;;;;4.53;1.70;;;6.50;99.90;;;;;;5030277;28;20209;-37
2023/01/10 11:54:25;;;;;;;3.73;1.60;;;6.50;99.90;;;;;;5029235;28;20194;-38
2023/01/10 11:57:13;;;;;;;3.33;1.50;;;6.40;99.90;;;;;;5014739;28;20177;-39
2023/01/10 11:59:48;;;;;;;4.37;1.80;;;6.40;99.90;;;;;;5031503;28;20204;-37
2023/01/10 12:02:20;;;;;;;4.17;1.63;;;6.50;99.90;;;;;;5028336;28;20197;-37
2023/01/10 12:04:50;;;;;;;3.40;1.73;;;6.60;99.90;;;;;;5010857;28;20301;-42
2023/01/10 12:07:17;;;;;;;3.40;1.43;;;6.80;99.90;;;;;;4994911;28;20187;-41
2023/01/10 12:09:53;;;;;;;5.57;1.17;;;6.90;99.90;;;;;;5010912;28;20191;-44
2023/01/10 12:12:27;;;;;;;7.87;2.20;;;6.90;99.90;;;;;;5011093;28;20218;-39
2023/01/10 12:14:56;;;;;;;5.27;1.90;;;7.00;99.90;;;;;;4997310;28;20202;-40
2023/01/10 12:17:31;;;;;;;6.33;2.30;;;7.20;99.90;;;;;;5030057;28;20180;-44
2023/01/10 12:20:01;;;;;;;6.97;1.60;;;7.30;99.90;;;;;;5014019;28;20204;-41
2023/01/10 12:22:36;;;;;;;4.93;1.80;;;7.40;99.90;;;;;;5030581;28;20182;-40
2023/01/10 12:25:08;;;;;;;5.50;1.70;;;7.50;99.90;;;;;;5032651;28;20212;-42
2023/01/10 12:27:33;;;;;;;6.10;1.60;;;7.50;99.90;;;;;;5038158;28;20181;-42
2023/01/10 12:30:11;;;;;;;8.33;2.13;;;7.50;99.90;;;;;;5003458;28;20186;-41
2023/01/10 12:32:53;;;;;;;6.10;1.97;;;7.50;99.90;;;;;;5004667;28;20202;-38
2023/01/10 12:35:47;;;;;;;5.60;1.83;;;7.70;99.90;;;;;;5020742;28;20224;-40
2023/01/10 12:44:40;;;;;;;3.37;1.53;;;7.30;99.90;;;;;;4994914;28;20213;-41
2023/01/10 12:47:26;;;;;;;7.50;1.70;;;7.10;99.90;;;;;;5029824;28;20274;-40
2023/01/10 12:50:13;;;;;;;5.60;1.50;;;7.00;99.90;;;;;;5011170;28;20195;-40
2023/01/10 12:52:47;;;;;;;5.00;1.80;;;6.90;99.90;;;;;;5028752;28;20242;-42
2023/01/10 12:55:18;;;;;;;4.33;2.03;;;6.80;99.90;;;;;;4998212;28;20748;-41
2023/01/10 12:57:49;;;;;;;6.40;2.20;;;6.80;99.90;;;;;;5029875;28;20186;-40
2023/01/10 13:00:24;;;;;;;6.50;1.60;;;6.80;99.90;;;;;;5021049;28;20193;-44
2023/01/10 13:02:56;;;;;;;5.67;2.03;;;6.80;99.90;;;;;;5028665;28;20184;-40
2023/01/10 13:05:28;;;;;;;6.17;2.47;;;6.80;99.90;;;;;;5008105;28;20206;-43
2023/01/10 13:08:03;;;;;;;5.70;1.67;;;6.70;99.90;;;;;;5028541;28;20193;-46
2023/01/10 13:10:33;;;;;;;5.87;1.83;;;6.70;99.90;;;;;;5025276;28;20192;-39
2023/01/10 13:13:30;;;;;;;5.13;1.90;;;6.70;99.90;;;;;;5010263;28;20285;-41
2023/01/10 13:16:08;;;;;;;5.77;1.90;;;6.70;99.90;;;;;;4981696;28;20194;-37
2023/01/10 13:18:34;;;;;;;4.57;1.53;;;6.90;99.90;;;;;;5031675;28;20218;-40
2023/01/10 13:21:14;;;;;;;5.30;1.53;;;7.00;99.90;;;;;;5030670;28;20241;-39
2023/01/10 13:23:49;;;;;;;3.73;1.60;;;7.20;99.90;;;;;;5023964;28;20213;-41
2023/01/10 13:26:16;;;;;;;6.20;2.10;;;7.40;99.90;;;;;;5001725;28;20191;-39
2023/01/10 13:28:57;;;;;;;4.37;1.67;;;7.50;99.90;;;;;;5018658;28;20198;-38
2023/01/10 13:31:31;;;;;;;6.37;1.60;;;7.40;99.90;;;;;;5036176;28;20241;-38
2023/01/10 13:34:05;;;;;;;5.63;1.30;;;7.30;99.90;;;;;;5022630;28;20206;-38
2023/01/10 13:36:47;;;;;;;5.80;1.67;;;7.40;99.90;;;;;;5006261;28;20268;-38
2023/01/10 13:39:26;;;;;;;6.77;1.73;;;7.50;99.90;;;;;;5035443;28;20180;-38
2023/01/10 13:45:10;;;;;;;4.13;1.40;;;7.30;99.90;;;;;;5018808;28;20208;-37